Time;durP1;ratioP1;P1;durP2;ratioP2;P2;SDS_P1;SDS_P2;PMS_P1;PMS_P2;Temp;Humidity;BMP_temperature;BMP_pressure;BME280_temperature;BME280_humidity;BME280_pressure;Samples;Min_cycle;Max_cycle;Signal;HPM_P1;HPM_P2
2021/03/25 00:01:07;;;;;;;19.75;7.43;;;;;;;-1.75;69.51;99614.13;3549007;27;20047;-48
2021/03/25 00:02:49;;;;;;;19.45;8.43;;;;;;;-1.75;69.54;99610.72;3550514;27;20134;-49
2021/03/25 00:04:30;;;;;;;17.60;8.18;;;;;;;-1.75;69.78;99608.16;3551661;27;20507;-50
2021/03/25 00:06:12;;;;;;;16.10;8.68;;;;;;;-1.77;69.78;99607.16;3548838;27;20517;-49
2021/03/25 00:07:53;;;;;;;17.08;7.90;;;;;;;-1.79;69.42;99607.06;3552533;27;20043;-49
2021/03/25 00:09:39;;;;;;;17.00;9.00;;;;;;;-1.81;70.01;99601.00;3548869;27;20066;-49
2021/03/25 00:11:22;;;;;;;20.02;8.65;;;;;;;-1.82;70.04;99609.44;3552684;27;20046;-49
2021/03/25 00:13:04;;;;;;;18.40;8.60;;;;;;;-1.84;70.02;99603.38;3547430;27;20076;-49
2021/03/25 00:14:45;;;;;;;16.73;7.82;;;;;;;-1.84;70.31;99603.38;3549822;27;20047;-50
2021/03/25 00:16:27;;;;;;;19.85;8.55;;;;;;;-1.84;70.25;99605.03;3552743;27;20499;-49
2021/03/25 00:18:10;;;;;;;15.85;7.47;;;;;;;-1.86;69.27;99607.47;3549390;27;20057;-52
2021/03/25 00:19:51;;;;;;;17.65;8.32;;;;;;;-1.85;68.89;99596.53;3538749;28;20027;-48
2021/03/25 00:21:32;;;;;;;16.63;7.68;;;;;;;-1.87;68.68;99593.91;3546271;27;20099;-48
2021/03/25 00:23:15;;;;;;;17.23;7.63;;;;;;;-1.87;68.81;99598.97;3552445;27;20050;-50
2021/03/25 00:24:57;;;;;;;18.42;7.88;;;;;;;-1.86;68.02;99607.47;3549267;27;20039;-55
2021/03/25 00:26:39;;;;;;;14.73;7.10;;;;;;;-1.84;67.52;99600.84;3550212;27;20043;-56
2021/03/25 00:28:21;;;;;;;19.73;8.45;;;;;;;-1.82;68.35;99604.34;3549870;27;20419;-55
2021/03/25 00:30:03;;;;;;;22.55;8.35;;;;;;;-1.80;68.44;99594.28;3549443;27;20050;-55
2021/03/25 00:31:45;;;;;;;18.02;7.18;;;;;;;-1.77;67.86;99599.53;3552063;27;20464;-54
2021/03/25 00:33:27;;;;;;;19.25;8.10;;;;;;;-1.76;67.84;99598.75;3548682;27;20047;-55
2021/03/25 00:35:11;;;;;;;14.73;7.70;;;;;;;-1.76;68.39;99602.19;3551737;27;20055;-54
2021/03/25 00:36:53;;;;;;;18.30;7.40;;;;;;;-1.74;68.37;99604.81;3548924;27;20076;-55
2021/03/25 00:38:34;;;;;;;19.17;8.20;;;;;;;-1.72;67.85;99605.78;3551103;27;20039;-55
2021/03/25 00:40:17;;;;;;;17.45;8.48;;;;;;;-1.71;67.94;99603.34;3550869;27;20062;-55
2021/03/25 00:41:58;;;;;;;18.27;8.15;;;;;;;-1.70;67.26;99594.03;3548621;27;20046;-55
2021/03/25 00:43:40;;;;;;;17.45;7.82;;;;;;;-1.69;66.93;99601.75;3552163;27;20539;-55
2021/03/25 00:45:25;;;;;;;15.32;7.20;;;;;;;-1.69;66.70;99601.75;3550814;27;20049;-55
2021/03/25 00:47:06;;;;;;;17.17;7.50;;;;;;;-1.69;66.33;99598.34;3550658;27;20054;-52
2021/03/25 00:48:48;;;;;;;17.17;8.35;;;;;;;-1.69;66.35;99596.69;3551085;27;20517;-52
2021/03/25 00:50:32;;;;;;;15.07;8.55;;;;;;;-1.68;66.26;99597.56;3549343;27;20047;-48
2021/03/25 00:52:14;;;;;;;23.35;9.27;;;;;;;-1.69;67.12;99591.59;3550884;27;20065;-49
2021/03/25 00:53:56;;;;;;;18.45;8.85;;;;;;;-1.65;66.99;99592.66;3548594;27;20050;-49
2021/03/25 00:55:37;;;;;;;15.05;8.10;;;;;;;-1.62;67.44;99597.94;3552129;27;20095;-50
2021/03/25 00:57:19;;;;;;;15.40;7.93;;;;;;;-1.59;67.35;99594.72;3548428;27;20051;-50
2021/03/25 00:59:01;;;;;;;18.77;8.27;;;;;;;-1.57;67.57;99594.00;3551510;27;20046;-50
2021/03/25 01:00:44;;;;;;;16.00;8.10;;;;;;;-1.55;67.30;99597.50;3549347;27;20057;-49
2021/03/25 01:02:26;;;;;;;18.52;8.32;;;;;;;-1.52;67.47;99594.28;3550467;27;20047;-50
2021/03/25 01:04:07;;;;;;;17.10;7.82;;;;;;;-1.51;67.53;99588.41;3551193;27;20464;-51
2021/03/25 01:05:49;;;;;;;17.17;8.48;;;;;;;-1.49;67.32;99603.00;3548328;27;20042;-49
2021/03/25 01:10:22;;;;;;;16.60;7.90;;;;;;;-1.47;67.42;99603.09;3537803;28;20074;-49
2021/03/25 01:12:05;;;;;;;21.45;9.05;;;;;;;-1.45;67.16;99600.59;3546538;27;20427;-50
2021/03/25 01:13:50;;;;;;;18.75;7.75;;;;;;;-1.45;67.03;99600.59;3549804;27;20043;-49
2021/03/25 01:15:31;;;;;;;16.67;7.60;;;;;;;-1.50;66.49;99600.34;3549333;27;20051;-56
2021/03/25 01:17:13;;;;;;;15.25;7.90;;;;;;;-1.53;66.68;99603.56;3550776;27;20055;-55
2021/03/25 01:18:55;;;;;;;16.70;7.95;;;;;;;-1.54;66.95;99604.38;3551499;27;20103;-55
2021/03/25 01:20:40;;;;;;;22.00;9.13;;;;;;;-1.57;66.64;99596.56;3549175;27;20804;-55
2021/03/25 01:22:21;;;;;;;18.33;8.70;;;;;;;-1.60;66.26;99596.34;3551963;27;20518;-56
2021/03/25 01:24:04;;;;;;;22.00;9.43;;;;;;;-1.62;66.13;99597.94;3548285;27;20055;-49
2021/03/25 01:25:48;;;;;;;22.50;10.50;;;;;;;-1.64;66.12;99608.81;3550542;27;20050;-49
2021/03/25 01:27:29;;;;;;;21.65;11.43;;;;;;;-1.67;67.33;99600.19;3551676;27;20051;-49
2021/03/25 01:29:11;;;;;;;27.10;12.77;;;;;;;-1.67;67.28;99591.69;3548533;27;20050;-50
2021/03/25 01:30:53;;;;;;;25.67;11.05;;;;;;;-1.68;66.85;99598.44;3551190;27;20055;-50
2021/03/25 01:32:34;;;;;;;26.33;11.25;;;;;;;-1.68;66.65;99592.50;3548189;27;20046;-49
2021/03/25 01:34:19;;;;;;;26.40;11.52;;;;;;;-1.68;66.59;99597.56;3551893;27;20078;-51
2021/03/25 01:36:00;;;;;;;28.88;13.55;;;;;;;-1.68;67.82;99595.03;3548183;27;20415;-48
2021/03/25 01:37:43;;;;;;;29.65;12.38;;;;;;;-1.67;68.76;99591.69;3550141;27;20743;-51
2021/03/25 01:39:24;;;;;;;29.48;12.98;;;;;;;-1.65;69.22;99595.19;3550100;27;20058;-50
2021/03/25 01:41:05;;;;;;;30.40;13.52;;;;;;;-1.64;69.41;99593.56;3549380;27;20054;-50
2021/03/25 01:42:47;;;;;;;30.17;13.55;;;;;;;-1.64;69.07;99588.47;3550359;27;20055;-51
2021/03/25 01:44:36;;;;;;;26.85;11.52;;;;;;;-1.65;68.43;99591.78;3548121;27;20051;-51
2021/03/25 01:46:21;;;;;;;28.33;12.82;;;;;;;-1.67;68.58;99597.63;3551840;27;20559;-49
2021/03/25 01:48:03;;;;;;;24.10;11.48;;;;;;;-1.68;67.98;99602.66;3548680;27;20142;-48
2021/03/25 01:49:45;;;;;;;26.73;11.52;;;;;;;-1.70;68.03;99596.56;3551893;27;20043;-49
2021/03/25 01:51:52;;;;;;;26.90;11.95;;;;;;;-1.72;68.46;99598.16;3551563;27;20464;-52
2021/03/25 01:54:06;;;;;;;30.23;13.27;;;;;;;-1.77;67.96;99597.91;3550813;27;20043;-51
2021/03/25 01:55:53;;;;;;;33.20;13.57;;;;;;;-1.79;68.63;99604.53;3549529;27;20500;-50
2021/03/25 01:58:19;;;;;;;34.13;14.70;;;;;;;-1.82;68.55;99603.47;3550341;27;20069;-49
2021/03/25 02:00:20;;;;;;;38.28;15.13;;;;;;;-1.86;69.11;99603.28;3504249;27;20467;-48
2021/03/25 02:02:09;;;;;;;31.42;14.20;;;;;;;-1.88;68.95;99606.50;3550565;27;20055;-49
2021/03/25 02:04:18;;;;;;;35.17;15.20;;;;;;;-1.90;69.38;99610.63;3539935;28;20055;-48
2021/03/25 02:06:09;;;;;;;43.25;16.30;;;;;;;-1.92;69.75;99607.13;3553703;27;20110;-50
2021/03/25 02:08:01;;;;;;;37.17;15.30;;;;;;;-1.94;69.94;99612.09;3552738;27;20514;-49
2021/03/25 02:09:49;;;;;;;31.65;13.23;;;;;;;-1.96;69.42;99602.63;3554247;27;20058;-49
2021/03/25 02:11:41;;;;;;;27.05;11.82;;;;;;;-1.97;69.57;99600.88;3550411;27;20058;-52
2021/03/25 02:13:29;;;;;;;26.02;10.15;;;;;;;-1.98;69.19;99604.16;3550525;27;20080;-49
2021/03/25 02:15:21;;;;;;;22.60;9.65;;;;;;;-2.01;69.30;99601.47;3553672;27;20072;-49
2021/03/25 02:17:11;;;;;;;22.63;9.30;;;;;;;-2.03;69.62;99596.28;3550479;27;20043;-50
2021/03/25 02:18:59;;;;;;;22.10;9.27;;;;;;;-2.06;69.14;99599.50;3554077;27;20050;-51
2021/03/25 02:21:14;;;;;;;22.05;9.90;;;;;;;-2.07;69.44;99600.28;3553342;27;20043;-49
2021/03/25 02:23:11;;;;;;;21.48;9.10;;;;;;;-2.10;69.53;99599.22;3544433;27;20492;-50
2021/03/25 02:24:59;;;;;;;24.75;9.88;;;;;;;-2.11;69.24;99597.47;3553794;27;20061;-49
2021/03/25 02:26:46;;;;;;;30.23;11.43;;;;;;;-2.14;69.51;99598.16;3552743;27;20534;-56
2021/03/25 02:28:45;;;;;;;23.98;9.82;;;;;;;-2.15;69.36;99600.59;3550612;27;20054;-56
2021/03/25 02:30:36;;;;;;;21.73;10.40;;;;;;;-2.18;69.87;99595.31;3539484;28;20047;-55
2021/03/25 02:32:23;;;;;;;25.80;11.15;;;;;;;-2.20;70.49;99591.81;3548472;27;20073;-56
2021/03/25 02:34:10;;;;;;;22.15;9.75;;;;;;;-2.22;70.59;99593.38;3552358;27;20153;-55
2021/03/25 02:35:58;;;;;;;25.38;10.38;;;;;;;-2.25;71.01;99596.59;3551669;27;20047;-55
2021/03/25 02:37:44;;;;;;;23.35;11.60;;;;;;;-2.27;71.40;99595.63;3551354;27;20062;-56
2021/03/25 02:39:30;;;;;;;28.23;11.40;;;;;;;-2.29;71.44;99597.19;3553937;27;20043;-56
2021/03/25 02:41:26;;;;;;;23.52;10.73;;;;;;;-2.33;71.44;99593.56;3550161;27;20054;-56
2021/03/25 02:43:11;;;;;;;27.45;10.70;;;;;;;-2.35;70.71;99586.63;3551771;27;20078;-55
2021/03/25 02:44:59;;;;;;;24.15;11.05;;;;;;;-2.39;70.52;99593.16;3553405;27;20047;-55
2021/03/25 02:46:45;;;;;;;25.80;11.40;;;;;;;-2.39;71.51;99588.09;3550049;27;20046;-55
2021/03/25 02:48:29;;;;;;;23.15;12.13;;;;;;;-2.40;72.15;99588.88;3553788;27;20050;-56
2021/03/25 02:50:16;;;;;;;23.20;10.60;;;;;;;-2.40;72.17;99588.88;3550313;27;20063;-56
2021/03/25 02:52:05;;;;;;;20.83;10.70;;;;;;;-2.41;71.79;99592.19;3551793;27;20084;-55
2021/03/25 02:53:48;;;;;;;26.38;10.25;;;;;;;-2.43;71.76;99596.31;3553286;27;20049;-57
2021/03/25 02:55:30;;;;;;;22.88;10.35;;;;;;;-2.45;72.22;99598.75;3549826;27;20418;-55
2021/03/25 02:57:18;;;;;;;24.10;11.25;;;;;;;-2.47;72.31;99600.31;3553707;27;20047;-57
2021/03/25 02:59:03;;;;;;;21.70;9.52;;;;;;;-2.49;72.42;99594.25;3552161;27;20050;-56
2021/03/25 03:00:48;;;;;;;23.05;10.77;;;;;;;-2.53;72.81;99594.84;3552185;27;20499;-56
2021/03/25 03:02:35;;;;;;;23.58;10.40;;;;;;;-2.53;72.54;99599.94;3551021;27;20057;-56
2021/03/25 03:04:21;;;;;;;23.33;11.38;;;;;;;-2.55;72.80;99598.94;3550056;27;20043;-55
2021/03/25 03:06:04;;;;;;;23.05;11.55;;;;;;;-2.56;73.09;99598.88;3539515;28;20423;-50
2021/03/25 03:07:51;;;;;;;23.40;11.88;;;;;;;-2.58;72.80;99602.94;3550398;27;20107;-49
2021/03/25 03:09:37;;;;;;;31.10;13.25;;;;;;;-2.59;73.62;99602.06;3551969;27;20055;-49
2021/03/25 03:11:23;;;;;;;24.75;12.30;;;;;;;-2.59;74.11;99598.66;3550868;27;20497;-48
2021/03/25 03:13:08;;;;;;;24.00;12.45;;;;;;;-2.62;74.07;99601.84;3549564;27;20057;-50
2021/03/25 03:14:55;;;;;;;27.48;12.35;;;;;;;-2.63;73.88;99600.13;3552914;27;20051;-50
2021/03/25 03:16:43;;;;;;;24.98;12.00;;;;;;;-2.65;73.92;99599.16;3549533;27;20058;-49
2021/03/25 03:18:29;;;;;;;25.17;12.13;;;;;;;-2.69;74.04;99608.22;3552491;27;20046;-49
2021/03/25 03:20:16;;;;;;;25.08;11.80;;;;;;;-2.72;74.10;99605.47;3551048;27;20058;-51
2021/03/25 03:22:02;;;;;;;26.67;11.55;;;;;;;-2.76;74.34;99602.63;3550830;27;20081;-50
2021/03/25 03:23:43;;;;;;;25.23;11.63;;;;;;;-2.79;74.72;99602.41;3552907;27;20051;-49
2021/03/25 03:25:26;;;;;;;25.48;12.15;;;;;;;-2.81;74.49;99608.28;3551942;27;20042;-52
2021/03/25 03:27:15;;;;;;;26.40;11.88;;;;;;;-2.83;74.79;99603.88;3553101;27;20595;-51
2021/03/25 03:29:04;;;;;;;27.17;12.10;;;;;;;-2.86;74.60;99601.16;3552393;27;20050;-51
2021/03/25 03:30:50;;;;;;;29.00;11.88;;;;;;;-2.88;74.62;99605.25;3549832;27;20043;-49
2021/03/25 03:32:39;;;;;;;25.08;11.85;;;;;;;-2.92;74.26;99599.09;3553043;27;20107;-48
2021/03/25 03:34:25;;;;;;;31.80;12.15;;;;;;;-2.93;74.95;99604.97;3551906;27;20039;-50
2021/03/25 03:36:11;;;;;;;27.95;12.30;;;;;;;-2.95;75.14;99598.91;3553154;27;20104;-49
2021/03/25 03:37:58;;;;;;;27.58;12.75;;;;;;;-2.95;75.32;99600.53;3550502;27;20046;-49
2021/03/25 03:39:41;;;;;;;25.27;12.23;;;;;;;-2.97;75.42;99605.53;3550725;27;20537;-49
2021/03/25 03:41:26;;;;;;;24.08;12.13;;;;;;;-2.99;75.49;99596.94;3551691;27;20058;-50
2021/03/25 03:43:12;;;;;;;26.67;12.90;;;;;;;-3.02;75.64;99595.06;3551812;27;20041;-49
2021/03/25 03:44:58;;;;;;;24.50;11.38;;;;;;;-3.03;75.43;99598.38;3553106;27;20107;-51
2021/03/25 03:46:43;;;;;;;27.40;11.77;;;;;;;-3.04;75.42;99603.34;3549157;27;20035;-51
2021/03/25 03:48:34;;;;;;;28.48;10.90;;;;;;;-3.04;75.91;99603.34;3551055;27;20103;-49
2021/03/25 03:50:21;;;;;;;26.48;11.05;;;;;;;-3.05;75.95;99601.59;3551676;27;20051;-49
2021/03/25 03:52:07;;;;;;;26.13;11.13;;;;;;;-3.04;75.92;99611.88;3549330;27;20058;-56
2021/03/25 03:53:48;;;;;;;19.10;9.25;;;;;;;-3.04;75.94;99603.34;3552965;27;20050;-56
2021/03/25 03:55:31;;;;;;;22.52;10.32;;;;;;;-3.04;76.22;99608.41;3550445;27;20046;-54
2021/03/25 03:57:21;;;;;;;20.70;10.27;;;;;;;-3.05;76.29;99606.69;3550751;27;20054;-57
2021/03/25 03:59:08;;;;;;;27.05;10.52;;;;;;;-3.06;76.62;99600.75;3553835;27;20488;-56
2021/03/25 04:00:57;;;;;;;25.75;10.82;;;;;;;-3.06;76.85;99593.13;3551420;27;20450;-56
2021/03/25 04:02:42;;;;;;;25.98;11.68;;;;;;;-3.05;76.62;99589.78;3552796;27;20073;-56
2021/03/25 04:04:29;;;;;;;23.30;10.60;;;;;;;-3.05;77.02;99602.47;3549865;27;20042;-49
2021/03/25 04:06:15;;;;;;;22.67;9.98;;;;;;;-3.03;76.83;99607.66;3550904;27;20503;-49
2021/03/25 04:08:04;;;;;;;26.33;10.18;;;;;;;-3.03;77.08;99600.91;3551518;27;20047;-51
2021/03/25 04:09:50;;;;;;;19.83;9.10;;;;;;;-3.02;77.15;99600.16;3549423;27;20047;-51
2021/03/25 04:11:37;;;;;;;26.52;10.23;;;;;;;-3.01;76.93;99601.03;3552726;27;20388;-49
2021/03/25 04:13:26;;;;;;;26.30;10.52;;;;;;;-3.01;77.09;99598.47;3550188;27;20111;-49
2021/03/25 04:15:14;;;;;;;23.20;9.70;;;;;;;-3.00;76.90;99601.13;3539903;27;20039;-49
2021/03/25 04:17:00;;;;;;;21.70;8.93;;;;;;;-2.99;76.74;99596.94;3551233;27;20426;-48
2021/03/25 04:18:47;;;;;;;19.35;8.93;;;;;;;-2.97;76.79;99605.53;3551512;27;20082;-56
2021/03/25 04:20:30;;;;;;;24.27;10.15;;;;;;;-2.96;76.90;99601.34;3552754;27;20046;-57
2021/03/25 04:22:16;;;;;;;24.23;10.50;;;;;;;-2.93;76.91;99601.53;3551437;27;20122;-49
2021/03/25 04:24:03;;;;;;;24.17;11.00;;;;;;;-2.91;76.98;99605.94;3550529;27;20051;-50
2021/03/25 04:25:50;;;;;;;25.90;11.45;;;;;;;-2.88;76.92;99608.69;3552498;27;20051;-49
2021/03/25 04:27:37;;;;;;;25.15;11.60;;;;;;;-2.83;77.28;99609.88;3551392;27;20094;-49
2021/03/25 04:29:27;;;;;;;25.25;12.18;;;;;;;-2.78;77.43;99614.34;3552080;27;20471;-51
2021/03/25 04:31:08;;;;;;;29.98;12.93;;;;;;;-2.72;77.60;99619.84;3550334;27;20050;-50
2021/03/25 04:32:50;;;;;;;30.70;13.52;;;;;;;-2.66;77.40;99620.22;3549402;27;20046;-49
2021/03/25 04:34:32;;;;;;;36.80;14.77;;;;;;;-2.61;77.51;99616.31;3552725;27;20086;-49
2021/03/25 04:36:18;;;;;;;36.25;13.93;;;;;;;-2.53;77.61;99620.25;3551477;27;20422;-49
2021/03/25 04:38:00;;;;;;;36.90;12.68;;;;;;;-2.44;77.59;99622.50;3552705;27;20082;-48
2021/03/25 04:39:43;;;;;;;27.58;13.20;;;;;;;-2.35;77.63;99614.56;3551038;27;20102;-50
2021/03/25 04:41:24;;;;;;;29.90;12.60;;;;;;;-2.24;77.43;99617.00;3550595;27;20423;-49
2021/03/25 04:43:06;;;;;;;23.63;10.60;;;;;;;-2.13;77.17;99620.22;3549738;27;20043;-50
2021/03/25 04:44:51;;;;;;;29.73;12.00;;;;;;;-2.02;77.02;99609.88;3549072;27;20043;-49
2021/03/25 04:46:51;;;;;;;24.60;9.68;;;;;;;-1.89;77.25;99614.94;3552179;27;20055;-49
2021/03/25 04:48:41;;;;;;;19.65;6.97;;;;;;;-1.78;77.15;99608.84;3548816;27;20046;-52
2021/03/25 04:50:27;;;;;;;17.35;7.95;;;;;;;-1.63;76.89;99605.47;3550707;27;20452;-50
2021/03/25 04:52:16;;;;;;;13.93;6.50;;;;;;;-1.52;76.51;99602.78;3549906;27;20050;-49
2021/03/25 04:54:11;;;;;;;16.15;6.65;;;;;;;-1.38;76.11;99600.19;3549411;27;20081;-52
2021/03/25 04:55:54;;;;;;;10.55;5.65;;;;;;;-1.25;75.76;99600.13;3552187;27;20431;-49
2021/03/25 04:57:39;;;;;;;10.43;5.43;;;;;;;-1.12;75.12;99604.28;3550977;27;20043;-51
2021/03/25 04:59:22;;;;;;;18.52;6.88;;;;;;;-0.99;74.32;99609.31;3551383;27;20054;-50
2021/03/25 05:01:05;;;;;;;17.60;7.67;;;;;;;-0.88;73.65;99604.84;3552417;27;20054;-51
2021/03/25 05:02:46;;;;;;;15.82;7.40;;;;;;;-0.75;73.54;99607.31;3548890;27;20131;-49
2021/03/25 05:04:28;;;;;;;17.92;7.18;;;;;;;-0.64;73.06;99607.94;3552271;27;20054;-49
2021/03/25 05:06:18;;;;;;;13.55;6.03;;;;;;;-0.50;71.81;99612.91;3550950;27;20047;-53
2021/03/25 05:08:03;;;;;;;12.23;5.47;;;;;;;-0.38;71.73;99611.94;3551740;27;20042;-49
2021/03/25 05:09:44;;;;;;;12.60;5.72;;;;;;;-0.26;70.56;99616.81;3549618;27;20400;-49
2021/03/25 05:11:28;;;;;;;11.75;5.13;;;;;;;-0.16;70.06;99618.22;3549274;27;20435;-52
2021/03/25 05:13:20;;;;;;;8.18;4.85;;;;;;;-0.04;69.31;99610.34;3539392;27;22393;-49
2021/03/25 05:15:09;;;;;;;16.20;5.65;;;;;;;0.08;69.20;99621.22;3548577;27;20062;-50
2021/03/25 05:17:01;;;;;;;11.98;5.53;;;;;;;0.17;68.68;99624.31;3551664;27;20179;-49
2021/03/25 05:18:57;;;;;;;13.52;6.25;;;;;;;0.30;68.39;99619.84;3552013;27;20588;-50
2021/03/25 05:20:42;;;;;;;11.20;5.72;;;;;;;0.42;67.63;99620.50;3548342;27;20495;-49
2021/03/25 05:22:33;;;;;;;13.85;5.70;;;;;;;0.50;66.68;99620.91;3551934;27;20546;-49
2021/03/25 05:24:24;;;;;;;11.65;5.75;;;;;;;0.58;65.77;99625.63;3548542;27;20450;-49
2021/03/25 05:26:10;;;;;;;10.48;5.07;;;;;;;0.68;64.97;99626.09;3550373;27;20054;-50
2021/03/25 05:27:56;;;;;;;15.32;5.65;;;;;;;0.76;65.05;99625.69;3550887;27;20137;-50
2021/03/25 05:29:41;;;;;;;13.63;6.07;;;;;;;0.86;65.12;99624.50;3548349;27;20073;-50
2021/03/25 05:31:24;;;;;;;12.50;5.57;;;;;;;0.97;64.50;99625.06;3552044;27;20107;-50
2021/03/25 05:33:09;;;;;;;13.85;5.50;;;;;;;1.06;64.25;99630.63;3551206;27;20108;-50
2021/03/25 05:34:54;;;;;;;12.52;6.13;;;;;;;1.16;63.66;99634.53;3552435;27;20111;-50
2021/03/25 05:36:36;;;;;;;11.13;6.47;;;;;;;1.24;63.06;99632.34;3552903;27;20057;-50
2021/03/25 05:38:22;;;;;;;17.63;5.97;;;;;;;1.33;62.58;99635.34;3551006;27;20134;-51
2021/03/25 05:40:12;;;;;;;13.75;6.45;;;;;;;1.41;62.25;99640.84;3554427;27;20046;-53
2021/03/25 05:42:10;;;;;;;13.65;6.07;;;;;;;1.46;61.13;99640.28;3552865;27;20098;-50
2021/03/25 05:44:22;;;;;;;15.02;6.75;;;;;;;1.53;61.34;99636.31;3552222;27;20455;-51
2021/03/25 05:46:31;;;;;;;15.05;6.30;;;;;;;1.61;60.90;99640.16;3540106;28;20096;-51
2021/03/25 05:48:32;;;;;;;17.45;7.22;;;;;;;1.69;60.03;99635.41;3553724;27;20133;-50
2021/03/25 05:50:23;;;;;;;13.27;6.25;;;;;;;1.75;59.85;99628.03;3550824;27;20047;-50
2021/03/25 05:52:21;;;;;;;19.80;6.88;;;;;;;1.84;60.09;99635.28;3554360;27;20051;-50
2021/03/25 05:54:18;;;;;;;14.88;6.72;;;;;;;1.91;59.58;99642.44;3551190;27;20247;-50
2021/03/25 05:56:19;;;;;;;16.58;6.70;;;;;;;1.99;58.87;99637.66;3551714;27;20534;-50
2021/03/25 05:58:11;;;;;;;16.70;6.60;;;;;;;2.05;58.12;99637.97;3539956;28;20083;-57
2021/03/25 06:00:01;;;;;;;14.05;6.55;;;;;;;2.10;57.89;99646.75;3550309;27;20042;-57
2021/03/25 06:02:00;;;;;;;20.20;6.88;;;;;;;2.18;57.78;99644.53;3553166;27;20049;-57
2021/03/25 06:03:53;;;;;;;11.82;6.47;;;;;;;2.23;57.74;99649.03;3553906;27;20452;-56
2021/03/25 06:05:35;;;;;;;18.15;7.47;;;;;;;2.32;57.84;99648.59;3550750;27;20091;-57
2021/03/25 06:07:54;;;;;;;15.32;7.10;;;;;;;2.42;57.30;99650.78;3553358;27;20054;-57
2021/03/25 06:09:46;;;;;;;9.10;5.00;;;;;;;2.53;56.30;99643.59;3567302;27;20064;-57
2021/03/25 06:11:39;;;;;;;12.82;5.97;;;;;;;2.65;56.59;99644.13;3555583;27;20404;-57
2021/03/25 06:13:51;;;;;;;10.05;5.22;;;;;;;2.79;55.70;99643.88;3551531;27;20099;-57
2021/03/25 06:15:58;;;;;;;9.65;5.00;;;;;;;2.92;56.21;99651.28;3536688;27;20050;-57
2021/03/25 06:18:01;;;;;;;12.20;5.78;;;;;;;2.99;54.60;99644.75;3550353;27;20053;-57
2021/03/25 06:20:05;;;;;;;13.73;6.03;;;;;;;3.06;54.59;99645.06;3552912;27;20126;-56
2021/03/25 06:22:03;;;;;;;12.77;4.97;;;;;;;3.18;54.36;99647.28;3539265;28;20047;-55
2021/03/25 06:24:04;;;;;;;11.60;5.32;;;;;;;3.27;54.43;99650.22;3550464;27;20091;-56
2021/03/25 06:25:55;;;;;;;10.70;4.60;;;;;;;3.40;53.05;99653.31;3552552;27;20042;-56
2021/03/25 06:28:07;;;;;;;14.52;5.40;;;;;;;3.54;53.10;99648.75;3539637;28;20043;-56
2021/03/25 06:29:52;;;;;;;10.05;5.13;;;;;;;3.66;51.83;99649.25;3547463;27;20521;-56
2021/03/25 06:32:01;;;;;;;8.77;4.65;;;;;;;3.74;52.06;99645.34;3550541;27;20046;-55
2021/03/25 06:33:50;;;;;;;13.55;4.70;;;;;;;3.76;51.85;99653.09;3521051;28;20547;-55
2021/03/25 06:35:36;;;;;;;10.02;4.50;;;;;;;3.75;51.37;99653.91;3549264;27;20556;-55
2021/03/25 06:37:22;;;;;;;12.23;5.07;;;;;;;3.73;51.34;99652.97;3551647;27;20050;-51
2021/03/25 06:39:04;;;;;;;10.02;4.85;;;;;;;3.70;51.74;99648.59;3553665;27;20141;-51
2021/03/25 06:40:51;;;;;;;17.30;5.43;;;;;;;3.69;51.45;99646.84;3549872;27;20042;-49
2021/03/25 06:42:38;;;;;;;11.18;4.55;;;;;;;3.65;50.84;99650.09;3553602;27;20089;-51
2021/03/25 06:44:30;;;;;;;10.55;4.35;;;;;;;3.64;50.50;99645.78;3550636;27;20092;-53
2021/03/25 06:46:20;;;;;;;8.93;4.28;;;;;;;3.68;49.98;99639.94;3551202;27;20053;-50
2021/03/25 06:48:09;;;;;;;12.40;4.53;;;;;;;3.75;51.06;99639.38;3553240;27;20078;-50
2021/03/25 06:49:55;;;;;;;8.68;4.10;;;;;;;3.92;51.17;99641.75;3550186;27;20046;-49
2021/03/25 06:51:36;;;;;;;12.27;4.53;;;;;;;4.06;49.95;99645.75;3553585;27;20074;-53
2021/03/25 06:53:23;;;;;;;11.70;5.00;;;;;;;4.19;50.09;99639.38;3549839;27;20046;-49
2021/03/25 06:55:16;;;;;;;7.55;4.55;;;;;;;4.38;50.54;99640.97;3551770;27;20051;-57
2021/03/25 06:57:01;;;;;;;12.30;4.80;;;;;;;4.56;49.02;99638.19;3553333;27;20083;-49
2021/03/25 06:58:49;;;;;;;9.70;4.88;;;;;;;4.66;48.62;99642.00;3547580;27;20039;-50
2021/03/25 07:00:36;;;;;;;14.02;5.43;;;;;;;4.70;47.78;99639.59;3540402;27;20054;-57
2021/03/25 07:02:24;;;;;;;14.80;5.40;;;;;;;4.77;48.28;99641.56;3551392;27;20188;-51
2021/03/25 07:04:11;;;;;;;10.73;5.13;;;;;;;4.86;48.88;99640.16;3551376;27;20046;-56
2021/03/25 07:05:54;;;;;;;9.95;4.85;;;;;;;5.00;48.28;99646.66;3553640;27;20492;-51
2021/03/25 07:07:38;;;;;;;9.82;4.38;;;;;;;5.07;45.86;99645.19;3549812;27;20043;-50
2021/03/25 07:09:28;;;;;;;6.45;3.55;;;;;;;5.10;45.64;99646.16;3553053;27;20042;-50
2021/03/25 07:11:14;;;;;;;9.68;4.32;;;;;;;5.17;45.17;99652.41;3553309;27;20043;-51
2021/03/25 07:13:05;;;;;;;6.15;3.53;;;;;;;5.24;44.96;99649.22;3549807;27;20090;-51
2021/03/25 07:15:17;;;;;;;7.90;3.45;;;;;;;5.31;44.77;99651.19;3538966;28;20123;-51
2021/03/25 07:16:59;;;;;;;11.15;3.83;;;;;;;5.36;43.99;99641.91;3550572;27;20277;-51
2021/03/25 07:18:52;;;;;;;8.18;4.25;;;;;;;5.40;44.09;99642.91;3549967;27;20047;-50
2021/03/25 07:20:37;;;;;;;8.57;4.40;;;;;;;5.52;44.80;99640.75;3553186;27;20058;-50
2021/03/25 07:22:25;;;;;;;8.45;4.07;;;;;;;5.61;44.75;99636.72;3549679;27;20448;-52
2021/03/25 07:24:09;;;;;;;6.93;3.47;;;;;;;5.75;44.88;99643.19;3552940;27;20108;-53
2021/03/25 07:25:50;;;;;;;6.63;3.15;;;;;;;5.81;42.21;99639.94;3549926;27;20046;-50
2021/03/25 07:27:35;;;;;;;8.18;3.85;;;;;;;5.84;41.58;99634.91;3549822;27;20522;-50
2021/03/25 07:29:24;;;;;;;7.35;3.40;;;;;;;5.85;43.21;99634.06;3553297;27;20051;-52
2021/03/25 07:31:06;;;;;;;6.18;3.53;;;;;;;5.92;42.74;99630.84;3549608;27;20058;-51
2021/03/25 07:32:51;;;;;;;6.47;2.83;;;;;;;6.03;41.34;99632.06;3553136;27;20426;-52
2021/03/25 07:34:36;;;;;;;6.97;2.80;;;;;;;6.04;39.54;99628.66;3551730;27;20141;-50
2021/03/25 07:36:18;;;;;;;7.00;3.53;;;;;;;6.07;40.64;99635.63;3551215;27;20039;-51
2021/03/25 07:38:02;;;;;;;6.03;2.95;;;;;;;6.12;41.03;99623.75;3553044;27;20086;-50
2021/03/25 07:39:49;;;;;;;8.73;3.25;;;;;;;6.29;42.12;99626.84;3551779;27;20042;-52
2021/03/25 07:41:33;;;;;;;9.65;3.50;;;;;;;6.51;40.09;99618.91;3553268;27;20141;-50
2021/03/25 07:43:18;;;;;;;4.90;2.75;;;;;;;6.58;38.29;99616.53;3551944;27;20053;-50
2021/03/25 07:45:26;;;;;;;7.63;2.65;;;;;;;6.60;37.64;99620.03;3551208;27;20076;-53
2021/03/25 07:47:26;;;;;;;6.35;2.72;;;;;;;6.61;37.82;99625.22;3552771;27;20089;-52
2021/03/25 07:49:21;;;;;;;3.63;2.30;;;;;;;6.54;36.72;99615.56;3551722;27;20051;-54
2021/03/25 07:51:11;;;;;;;5.72;2.40;;;;;;;6.64;38.76;99616.69;3550976;27;20079;-51
2021/03/25 07:52:53;;;;;;;5.63;2.20;;;;;;;6.65;36.29;99613.28;3550804;27;20088;-52
2021/03/25 07:54:37;;;;;;;6.22;2.50;;;;;;;6.68;36.75;99608.19;3549270;27;20043;-51
2021/03/25 07:56:20;;;;;;;4.47;2.45;;;;;;;6.69;35.62;99613.41;3552518;27;20042;-51
2021/03/25 07:58:35;;;;;;;8.18;3.03;;;;;;;6.82;38.48;99612.06;3551897;27;20088;-51
2021/03/25 08:00:24;;;;;;;5.80;2.22;;;;;;;6.93;35.81;99614.03;3551879;27;20057;-50
2021/03/25 08:02:25;;;;;;;7.32;2.45;;;;;;;6.86;35.09;99613.88;3552409;27;20517;-50
2021/03/25 08:04:07;;;;;;;7.40;2.63;;;;;;;6.78;36.14;99612.78;3549282;27;20050;-53
2021/03/25 08:05:50;;;;;;;6.88;2.97;;;;;;;6.70;36.92;99610.00;3551128;27;20500;-53
2021/03/25 08:07:36;;;;;;;6.00;3.20;;;;;;;6.77;36.74;99603.34;3550362;27;20046;-51
2021/03/25 08:09:20;;;;;;;10.00;3.80;;;;;;;6.85;36.97;99608.69;3550107;27;20054;-50
2021/03/25 08:11:11;;;;;;;10.18;2.75;;;;;;;6.92;36.38;99613.19;3552704;27;20491;-54
2021/03/25 08:13:01;;;;;;;7.15;3.08;;;;;;;6.96;36.29;99614.16;3552593;27;20049;-54
2021/03/25 08:14:43;;;;;;;5.65;2.60;;;;;;;6.98;34.39;99605.66;3539365;27;21088;-54
2021/03/25 08:16:26;;;;;;;4.10;2.55;;;;;;;7.06;36.63;99611.00;3550668;27;20487;-54
2021/03/25 08:18:29;;;;;;;;;;;;;;;7.21;35.29;99614.00;3552033;27;20119;-55
2021/03/25 08:20:21;;;;;;;8.10;2.63;;;;;;;7.35;34.37;99611.75;3533332;28;19923;-53
2021/03/25 08:22:33;;;;;;;7.03;2.22;;;;;;;7.30;33.96;99610.78;3548807;27;20082;-53
2021/03/25 08:24:39;;;;;;;5.80;2.38;;;;;;;7.34;34.83;99607.44;3512555;27;20103;-52
2021/03/25 08:26:27;;;;;;;4.90;2.25;;;;;;;7.42;34.86;99611.09;3538023;27;20051;-53